sensor_id;sensor_type;location;lat;lon;timestamp;pressure;altitude;pressure_sealevel;temperature;humidity
50349;BME280;36250;48.740;22.174;2023-05-03T00:02:18;100777.59;;;16.42;51.74
50349;BME280;36250;48.740;22.174;2023-05-03T00:04:43;100778.69;;;16.41;52.31
50349;BME280;36250;48.740;22.174;2023-05-03T00:07:10;100760.28;;;16.37;53.07
50349;BME280;36250;48.740;22.174;2023-05-03T00:09:35;100770.44;;;16.36;53.14
50349;BME280;36250;48.740;22.174;2023-05-03T00:12:00;100763.84;;;16.37;52.92
50349;BME280;36250;48.740;22.174;2023-05-03T00:14:26;100755.06;;;16.40;52.35
50349;BME280;36250;48.740;22.174;2023-05-03T00:16:52;100759.44;;;16.47;52.62
50349;BME280;36250;48.740;22.174;2023-05-03T00:19:17;100753.13;;;16.51;51.93
50349;BME280;36250;48.740;22.174;2023-05-03T00:21:43;100755.91;;;16.61;52.30
50349;BME280;36250;48.740;22.174;2023-05-03T00:24:08;100756.72;;;16.57;52.58
50349;BME280;36250;48.740;22.174;2023-05-03T00:26:34;100750.69;;;16.60;52.03
50349;BME280;36250;48.740;22.174;2023-05-03T00:28:59;100749.03;;;16.64;52.26
50349;BME280;36250;48.740;22.174;2023-05-03T00:31:25;100754.53;;;16.64;52.03
50349;BME280;36250;48.740;22.174;2023-05-03T00:33:50;100743.81;;;16.67;51.86
50349;BME280;36250;48.740;22.174;2023-05-03T00:36:15;100756.97;;;16.70;51.99
50349;BME280;36250;48.740;22.174;2023-05-03T00:38:41;100754.81;;;16.77;51.69
50349;BME280;36250;48.740;22.174;2023-05-03T00:41:07;100750.69;;;16.75;51.82
50349;BME280;36250;48.740;22.174;2023-05-03T00:43:33;100749.03;;;16.69;51.64
50349;BME280;36250;48.740;22.174;2023-05-03T00:45:59;100750.13;;;16.68;51.75
50349;BME280;36250;48.740;22.174;2023-05-03T00:48:25;100756.44;;;16.68;51.94
50349;BME280;36250;48.740;22.174;2023-05-03T00:50:51;100753.97;;;16.67;51.86
50349;BME280;36250;48.740;22.174;2023-05-03T00:53:18;100768.81;;;16.66;51.81
50349;BME280;36250;48.740;22.174;2023-05-03T00:55:43;100766.06;;;16.66;51.91
50349;BME280;36250;48.740;22.174;2023-05-03T00:58:09;100767.72;;;16.62;51.93
50349;BME280;36250;48.740;22.174;2023-05-03T01:00:34;100774.31;;;16.66;52.35
50349;BME280;36250;48.740;22.174;2023-05-03T01:03:00;100771.56;;;16.61;52.06
50349;BME280;36250;48.740;22.174;2023-05-03T01:05:25;100769.94;;;16.60;52.19
50349;BME280;36250;48.740;22.174;2023-05-03T01:08:01;100769.94;;;16.60;52.36
50349;BME280;36250;48.740;22.174;2023-05-03T01:10:41;100764.97;;;16.67;51.82
50349;BME280;36250;48.740;22.174;2023-05-03T01:13:20;100769.38;;;16.63;51.41
50349;BME280;36250;48.740;22.174;2023-05-03T01:15:53;100766.88;;;16.71;51.61
50349;BME280;36250;48.740;22.174;2023-05-03T01:18:23;100771.56;;;16.71;52.18
50349;BME280;36250;48.740;22.174;2023-05-03T01:20:50;100766.06;;;16.66;51.56
50349;BME280;36250;48.740;22.174;2023-05-03T01:25:45;100759.47;;;16.67;52.15
50349;BME280;36250;48.740;22.174;2023-05-03T01:28:10;100762.22;;;16.67;52.17
50349;BME280;36250;48.740;22.174;2023-05-03T01:30:35;100771.56;;;16.66;52.14
50349;BME280;36250;48.740;22.174;2023-05-03T01:38:08;100777.34;;;16.59;52.43
50349;BME280;36250;48.740;22.174;2023-05-03T01:40:37;100773.78;;;16.54;52.49
50349;BME280;36250;48.740;22.174;2023-05-03T01:43:04;100771.84;;;16.54;52.73
50349;BME280;36250;48.740;22.174;2023-05-03T01:45:30;100779.56;;;16.57;52.63
50349;BME280;36250;48.740;22.174;2023-05-03T01:47:55;100779.81;;;16.56;52.76
50349;BME280;36250;48.740;22.174;2023-05-03T01:50:21;100783.69;;;16.60;52.18
50349;BME280;36250;48.740;22.174;2023-05-03T01:52:48;100772.41;;;16.61;52.35
50349;BME280;36250;48.740;22.174;2023-05-03T01:55:15;100780.94;;;16.60;52.43
50349;BME280;36250;48.740;22.174;2023-05-03T01:57:40;100782.00;;;16.59;52.66
50349;BME280;36250;48.740;22.174;2023-05-03T02:00:05;100782.31;;;16.57;52.66
50349;BME280;36250;48.740;22.174;2023-05-03T02:02:31;100782.56;;;16.56;52.69
50349;BME280;36250;48.740;22.174;2023-05-03T02:04:56;100781.72;;;16.50;53.03
50349;BME280;36250;48.740;22.174;2023-05-03T02:07:21;100777.59;;;16.48;53.19
50349;BME280;36250;48.740;22.174;2023-05-03T02:09:46;100779.81;;;16.40;53.36
50349;BME280;36250;48.740;22.174;2023-05-03T02:12:12;100774.31;;;16.35;53.51
50349;BME280;36250;48.740;22.174;2023-05-03T02:14:37;100769.06;;;16.29;53.95
50349;BME280;36250;48.740;22.174;2023-05-03T02:17:02;100771.25;;;16.27;53.95
50349;BME280;36250;48.740;22.174;2023-05-03T02:19:27;100783.63;;;16.24;54.93
50349;BME280;36250;48.740;22.174;2023-05-03T02:21:52;100788.53;;;16.07;56.17
50349;BME280;36250;48.740;22.174;2023-05-03T02:24:18;100789.09;;;15.94;55.92
50349;BME280;36250;48.740;22.174;2023-05-03T02:26:43;100797.84;;;15.86;56.21
50349;BME280;36250;48.740;22.174;2023-05-03T02:29:09;100792.88;;;15.83;55.50
50349;BME280;36250;48.740;22.174;2023-05-03T02:31:34;100792.38;;;15.91;54.51
50349;BME280;36250;48.740;22.174;2023-05-03T02:34:00;100790.44;;;16.02;54.15
50349;BME280;36250;48.740;22.174;2023-05-03T02:36:25;100786.34;;;16.09;53.82
50349;BME280;36250;48.740;22.174;2023-05-03T02:38:50;100785.28;;;16.15;53.79
50349;BME280;36250;48.740;22.174;2023-05-03T02:41:15;100788.56;;;16.17;53.91
50349;BME280;36250;48.740;22.174;2023-05-03T02:43:41;100784.72;;;16.18;53.65
50349;BME280;36250;48.740;22.174;2023-05-03T02:46:06;100788.56;;;16.17;53.89
50349;BME280;36250;48.740;22.174;2023-05-03T02:48:31;100793.50;;;16.10;54.33
50349;BME280;36250;48.740;22.174;2023-05-03T02:50:56;100791.28;;;16.02;54.96
50349;BME280;36250;48.740;22.174;2023-05-03T02:53:22;100792.63;;;15.95;54.89
50349;BME280;36250;48.740;22.174;2023-05-03T02:55:48;100796.22;;;15.95;54.67
50349;BME280;36250;48.740;22.174;2023-05-03T02:58:13;100803.38;;;15.96;54.62
50349;BME280;36250;48.740;22.174;2023-05-03T03:00:39;100804.44;;;15.95;54.77
50349;BME280;36250;48.740;22.174;2023-05-03T03:03:04;100804.72;;;15.94;54.90
50349;BME280;36250;48.740;22.174;2023-05-03T03:05:29;100801.97;;;15.89;55.10
50349;BME280;36250;48.740;22.174;2023-05-03T03:07:54;100807.13;;;15.80;55.41
50349;BME280;36250;48.740;22.174;2023-05-03T03:10:20;100810.38;;;15.57;57.11
50349;BME280;36250;48.740;22.174;2023-05-03T03:12:45;100813.56;;;15.44;57.42
50349;BME280;36250;48.740;22.174;2023-05-03T03:15:10;100824.44;;;15.29;58.43
50349;BME280;36250;48.740;22.174;2023-05-03T03:17:35;100824.34;;;15.08;59.74
50349;BME280;36250;48.740;22.174;2023-05-03T03:20:07;100827.81;;;14.94;61.57
50349;BME280;36250;48.740;22.174;2023-05-03T03:22:35;100824.69;;;14.80;61.72
50349;BME280;36250;48.740;22.174;2023-05-03T03:25:01;100830.69;;;14.77;62.17
50349;BME280;36250;48.740;22.174;2023-05-03T03:27:26;100820.81;;;14.76;62.18
50349;BME280;36250;48.740;22.174;2023-05-03T03:29:51;100831.72;;;14.66;62.94
50349;BME280;36250;48.740;22.174;2023-05-03T03:32:16;100829.91;;;14.50;63.37
50349;BME280;36250;48.740;22.174;2023-05-03T03:34:41;100828.22;;;14.44;63.98
50349;BME280;36250;48.740;22.174;2023-05-03T03:37:07;100825.44;;;14.39;64.59
50349;BME280;36250;48.740;22.174;2023-05-03T03:39:32;100832.00;;;14.38;64.62
50349;BME280;36250;48.740;22.174;2023-05-03T03:41:58;100836.97;;;14.41;64.55
50349;BME280;36250;48.740;22.174;2023-05-03T03:44:24;100837.53;;;14.43;64.56
50349;BME280;36250;48.740;22.174;2023-05-03T03:46:49;100844.19;;;14.52;64.28
50349;BME280;36250;48.740;22.174;2023-05-03T03:49:14;100844.53;;;14.61;64.18
50349;BME280;36250;48.740;22.174;2023-05-03T03:51:39;100839.88;;;14.61;64.53
50349;BME280;36250;48.740;22.174;2023-05-03T03:54:04;100846.41;;;14.55;64.80
50349;BME280;36250;48.740;22.174;2023-05-03T03:56:30;100850.81;;;14.56;64.85
50349;BME280;36250;48.740;22.174;2023-05-03T03:58:55;100851.69;;;14.62;64.65
50349;BME280;36250;48.740;22.174;2023-05-03T04:01:20;100859.41;;;14.70;64.63
50349;BME280;36250;48.740;22.174;2023-05-03T04:03:45;100858.63;;;14.74;64.82
50349;BME280;36250;48.740;22.174;2023-05-03T04:06:13;100860.75;;;14.67;65.24
50349;BME280;36250;48.740;22.174;2023-05-03T04:08:39;100860.22;;;14.70;64.99
50349;BME280;36250;48.740;22.174;2023-05-03T04:11:08;100866.84;;;14.74;64.86
50349;BME280;36250;48.740;22.174;2023-05-03T04:13:34;100872.84;;;14.71;65.14
50349;BME280;36250;48.740;22.174;2023-05-03T04:15:59;100866.16;;;14.57;65.68
50349;BME280;36250;48.740;22.174;2023-05-03T04:18:25;100871.53;;;14.47;66.39
50349;BME280;36250;48.740;22.174;2023-05-03T04:20:50;100875.69;;;14.50;66.22
50349;BME280;36250;48.740;22.174;2023-05-03T04:23:16;100876.19;;;14.46;66.43
50349;BME280;36250;48.740;22.174;2023-05-03T04:25:42;100885.53;;;14.51;66.18
50349;BME280;36250;48.740;22.174;2023-05-03T04:28:11;100878.47;;;14.55;66.13
50349;BME280;36250;48.740;22.174;2023-05-03T04:30:37;100889.72;;;14.58;65.99
50349;BME280;36250;48.740;22.174;2023-05-03T04:33:02;100899.09;;;14.67;65.95
50349;BME280;36250;48.740;22.174;2023-05-03T04:35:28;100888.69;;;14.64;66.63
50349;BME280;36250;48.740;22.174;2023-05-03T04:37:53;100892.81;;;14.67;66.87
50349;BME280;36250;48.740;22.174;2023-05-03T04:40:18;100900.25;;;14.71;66.45
50349;BME280;36250;48.740;22.174;2023-05-03T04:42:44;100890.94;;;14.72;66.52
50349;BME280;36250;48.740;22.174;2023-05-03T04:45:09;100903.56;;;14.73;66.26
50349;BME280;36250;48.740;22.174;2023-05-03T04:47:34;100904.13;;;14.75;66.05
50349;BME280;36250;48.740;22.174;2023-05-03T04:50:00;100905.06;;;14.86;65.62
50349;BME280;36250;48.740;22.174;2023-05-03T04:52:26;100910.88;;;14.94;65.29
50349;BME280;36250;48.740;22.174;2023-05-03T04:54:51;100912.34;;;15.07;63.56
50349;BME280;36250;48.740;22.174;2023-05-03T04:57:16;100917.34;;;15.15;64.34
50349;BME280;36250;48.740;22.174;2023-05-03T04:59:42;100911.38;;;15.23;64.42
50349;BME280;36250;48.740;22.174;2023-05-03T05:02:07;100917.22;;;15.37;64.26
50349;BME280;36250;48.740;22.174;2023-05-03T05:04:32;100918.41;;;15.46;63.26
50349;BME280;36250;48.740;22.174;2023-05-03T05:06:57;100926.19;;;15.59;64.03
50349;BME280;36250;48.740;22.174;2023-05-03T05:09:25;100926.75;;;15.66;63.72
50349;BME280;36250;48.740;22.174;2023-05-03T05:11:50;100930.13;;;15.78;63.60
50349;BME280;36250;48.740;22.174;2023-05-03T05:14:16;100925.25;;;15.90;63.22
50349;BME280;36250;48.740;22.174;2023-05-03T05:16:41;100927.75;;;16.02;62.67
50349;BME280;36250;48.740;22.174;2023-05-03T05:19:07;100931.88;;;16.04;62.54
50349;BME280;36250;48.740;22.174;2023-05-03T05:21:32;100938.50;;;16.03;62.16
50349;BME280;36250;48.740;22.174;2023-05-03T05:23:58;100927.47;;;15.98;63.00
50349;BME280;36250;48.740;22.174;2023-05-03T05:26:23;100937.34;;;15.94;63.66
50349;BME280;36250;48.740;22.174;2023-05-03T05:28:48;100938.44;;;15.93;62.82
50349;BME280;36250;48.740;22.174;2023-05-03T05:31:14;100940.69;;;16.01;62.62
50349;BME280;36250;48.740;22.174;2023-05-03T05:33:39;100947.31;;;16.15;61.78
50349;BME280;36250;48.740;22.174;2023-05-03T05:36:05;100945.72;;;16.29;61.89
50349;BME280;36250;48.740;22.174;2023-05-03T05:38:30;100941.38;;;16.43;61.23
50349;BME280;36250;48.740;22.174;2023-05-03T05:40:55;100938.69;;;16.59;60.23
50349;BME280;36250;48.740;22.174;2023-05-03T05:43:21;100941.44;;;16.64;59.64
50349;BME280;36250;48.740;22.174;2023-05-03T05:45:46;100943.34;;;16.58;58.36
50349;BME280;36250;48.740;22.174;2023-05-03T05:48:11;100949.69;;;16.64;59.38
50349;BME280;36250;48.740;22.174;2023-05-03T05:50:36;100947.53;;;16.81;59.22
50349;BME280;36250;48.740;22.174;2023-05-03T05:53:02;100946.16;;;16.83;58.41
50349;BME280;36250;48.740;22.174;2023-05-03T05:55:27;100948.09;;;16.93;58.03
50349;BME280;36250;48.740;22.174;2023-05-03T05:57:52;100950.59;;;16.94;58.23
50349;BME280;36250;48.740;22.174;2023-05-03T06:00:18;100953.59;;;16.98;58.58
50349;BME280;36250;48.740;22.174;2023-05-03T06:02:43;100947.53;;;16.86;58.25
50349;BME280;36250;48.740;22.174;2023-05-03T06:05:09;100950.84;;;16.93;59.16
50349;BME280;36250;48.740;22.174;2023-05-03T06:07:35;100959.38;;;17.01;58.92
50349;BME280;36250;48.740;22.174;2023-05-03T06:10:00;100951.94;;;17.07;57.93
50349;BME280;36250;48.740;22.174;2023-05-03T06:12:26;100956.63;;;17.22;58.04
50349;BME280;36250;48.740;22.174;2023-05-03T06:14:51;100950.84;;;17.33;58.04
50349;BME280;36250;48.740;22.174;2023-05-03T06:17:16;100953.84;;;17.47;57.07
50349;BME280;36250;48.740;22.174;2023-05-03T06:19:41;100954.13;;;17.45;56.37
50349;BME280;36250;48.740;22.174;2023-05-03T06:22:07;100953.59;;;17.38;57.12
50349;BME280;36250;48.740;22.174;2023-05-03T06:24:32;100954.16;;;17.35;56.87
50349;BME280;36250;48.740;22.174;2023-05-03T06:26:57;100957.97;;;17.39;57.45
50349;BME280;36250;48.740;22.174;2023-05-03T06:29:24;100959.63;;;17.50;57.51
50349;BME280;36250;48.740;22.174;2023-05-03T06:31:49;100959.09;;;17.53;56.77
50349;BME280;36250;48.740;22.174;2023-05-03T06:34:18;100969.56;;;17.61;56.27
50349;BME280;36250;48.740;22.174;2023-05-03T06:36:45;100968.47;;;17.67;56.08
50349;BME280;36250;48.740;22.174;2023-05-03T06:39:10;100969.00;;;17.64;55.73
50349;BME280;36250;48.740;22.174;2023-05-03T06:41:35;100965.13;;;17.65;55.82
50349;BME280;36250;48.740;22.174;2023-05-03T06:44:01;100971.19;;;17.78;55.98
50349;BME280;36250;48.740;22.174;2023-05-03T06:46:27;100961.78;;;17.89;57.48
50349;BME280;36250;48.740;22.174;2023-05-03T06:48:53;100965.63;;;17.93;55.64
50349;BME280;36250;48.740;22.174;2023-05-03T06:51:24;100965.88;;;18.01;56.64
50349;BME280;36250;48.740;22.174;2023-05-03T06:53:54;100976.91;;;18.01;56.45
50349;BME280;36250;48.740;22.174;2023-05-03T06:56:20;100967.00;;;17.90;55.49
50349;BME280;36250;48.740;22.174;2023-05-03T06:58:45;100971.41;;;17.91;55.48
50349;BME280;36250;48.740;22.174;2023-05-03T07:01:11;100967.31;;;17.84;55.93
50349;BME280;36250;48.740;22.174;2023-05-03T07:03:36;100968.91;;;18.00;55.50
50349;BME280;36250;48.740;22.174;2023-05-03T07:06:01;100958.47;;;17.92;54.88
50349;BME280;36250;48.740;22.174;2023-05-03T07:08:27;100974.41;;;18.00;55.48
50349;BME280;36250;48.740;22.174;2023-05-03T07:10:52;100971.06;;;18.13;54.53
50349;BME280;36250;48.740;22.174;2023-05-03T07:13:17;100974.16;;;18.01;54.29
50349;BME280;36250;48.740;22.174;2023-05-03T07:15:42;100970.00;;;18.09;54.46
50349;BME280;36250;48.740;22.174;2023-05-03T07:18:09;100965.22;;;18.24;54.57
50349;BME280;36250;48.740;22.174;2023-05-03T07:20:34;100965.44;;;18.38;53.74
50349;BME280;36250;48.740;22.174;2023-05-03T07:23:00;100973.69;;;18.43;52.86
50349;BME280;36250;48.740;22.174;2023-05-03T07:25:25;100973.41;;;18.50;53.47
50349;BME280;36250;48.740;22.174;2023-05-03T07:27:51;100971.66;;;18.64;52.94
50349;BME280;36250;48.740;22.174;2023-05-03T07:30:16;100982.28;;;18.85;53.87
50349;BME280;36250;48.740;22.174;2023-05-03T07:32:42;100970.03;;;19.07;52.49
50349;BME280;36250;48.740;22.174;2023-05-03T07:35:07;100971.84;;;19.21;51.83
50349;BME280;36250;48.740;22.174;2023-05-03T07:37:33;100965.34;;;19.41;50.78
50349;BME280;36250;48.740;22.174;2023-05-03T07:39:58;100965.91;;;19.38;50.88
50349;BME280;36250;48.740;22.174;2023-05-03T07:42:23;100964.78;;;19.44;51.05
50349;BME280;36250;48.740;22.174;2023-05-03T07:44:49;100966.22;;;19.65;49.98
50349;BME280;36250;48.740;22.174;2023-05-03T07:47:14;100968.19;;;19.59;50.47
50349;BME280;36250;48.740;22.174;2023-05-03T07:49:39;100965.97;;;19.61;50.17
50349;BME280;36250;48.740;22.174;2023-05-03T07:52:04;100962.03;;;19.67;49.07
50349;BME280;36250;48.740;22.174;2023-05-03T07:54:30;100969.03;;;19.84;49.53
50349;BME280;36250;48.740;22.174;2023-05-03T07:56:55;100960.47;;;19.85;49.83
50349;BME280;36250;48.740;22.174;2023-05-03T07:59:20;100959.13;;;20.06;48.85
50349;BME280;36250;48.740;22.174;2023-05-03T08:01:45;100952.50;;;20.50;47.78
50349;BME280;36250;48.740;22.174;2023-05-03T08:04:10;100959.03;;;20.77;48.20
50349;BME280;36250;48.740;22.174;2023-05-03T08:06:36;100948.63;;;21.07;46.68
50349;BME280;36250;48.740;22.174;2023-05-03T08:09:02;100953.31;;;21.25;45.81
50349;BME280;36250;48.740;22.174;2023-05-03T08:11:28;100940.94;;;21.36;44.97
50349;BME280;36250;48.740;22.174;2023-05-03T08:13:53;100953.78;;;21.45;45.31
50349;BME280;36250;48.740;22.174;2023-05-03T08:16:19;100953.50;;;21.60;44.35
50349;BME280;36250;48.740;22.174;2023-05-03T08:18:44;100945.09;;;21.66;44.72
50349;BME280;36250;48.740;22.174;2023-05-03T08:21:10;100955.59;;;21.82;44.69
50349;BME280;36250;48.740;22.174;2023-05-03T08:23:37;100945.56;;;22.00;43.81
50349;BME280;36250;48.740;22.174;2023-05-03T08:26:02;100952.13;;;22.04;40.74
50349;BME280;36250;48.740;22.174;2023-05-03T08:28:28;100943.66;;;21.68;42.26
50349;BME280;36250;48.740;22.174;2023-05-03T08:30:54;100940.34;;;21.52;43.15
50349;BME280;36250;48.740;22.174;2023-05-03T08:33:20;100944.19;;;21.84;43.54
50349;BME280;36250;48.740;22.174;2023-05-03T08:35:46;100943.28;;;22.15;40.76
50349;BME280;36250;48.740;22.174;2023-05-03T08:38:11;100935.59;;;22.40;41.25
50349;BME280;36250;48.740;22.174;2023-05-03T08:40:37;100938.38;;;22.12;40.30
50349;BME280;36250;48.740;22.174;2023-05-03T08:43:07;100938.63;;;21.84;39.96
50349;BME280;36250;48.740;22.174;2023-05-03T08:45:34;100931.75;;;21.81;40.16
50349;BME280;36250;48.740;22.174;2023-05-03T08:47:59;100942.94;;;21.49;42.83
50349;BME280;36250;48.740;22.174;2023-05-03T08:50:26;100939.09;;;21.31;42.13
50349;BME280;36250;48.740;22.174;2023-05-03T08:52:52;100939.75;;;21.55;42.87
50349;BME280;36250;48.740;22.174;2023-05-03T08:55:17;100943.78;;;21.77;41.62
50349;BME280;36250;48.740;22.174;2023-05-03T08:57:43;100927.47;;;22.16;40.52
50349;BME280;36250;48.740;22.174;2023-05-03T09:00:08;100936.09;;;22.28;38.18
50349;BME280;36250;48.740;22.174;2023-05-03T09:02:36;100932.00;;;22.12;38.87
50349;BME280;36250;48.740;22.174;2023-05-03T09:05:17;100923.06;;;22.29;38.26
50349;BME280;36250;48.740;22.174;2023-05-03T09:08:00;100923.94;;;22.65;40.61
50349;BME280;36250;48.740;22.174;2023-05-03T09:10:29;100924.41;;;23.03;38.15
50349;BME280;36250;48.740;22.174;2023-05-03T09:12:58;100932.00;;;22.88;38.87
50349;BME280;36250;48.740;22.174;2023-05-03T09:15:25;100925.38;;;22.98;38.21
50349;BME280;36250;48.740;22.174;2023-05-03T09:18:24;100925.03;;;23.00;38.75
50349;BME280;36250;48.740;22.174;2023-05-03T09:20:42;100912.22;;;23.12;39.28
50349;BME280;36250;48.740;22.174;2023-05-03T09:23:15;100916.34;;;23.15;38.73
50349;BME280;36250;48.740;22.174;2023-05-03T09:25:49;100924.78;;;23.10;40.01
50349;BME280;36250;48.740;22.174;2023-05-03T09:28:18;100921.28;;;23.40;38.46
50349;BME280;36250;48.740;22.174;2023-05-03T09:30:44;100918.06;;;23.55;37.41
50349;BME280;36250;48.740;22.174;2023-05-03T09:33:10;100915.88;;;23.74;38.02
50349;BME280;36250;48.740;22.174;2023-05-03T09:35:36;100917.28;;;23.63;37.59
50349;BME280;36250;48.740;22.174;2023-05-03T09:38:01;100915.13;;;23.91;37.38
50349;BME280;36250;48.740;22.174;2023-05-03T09:40:27;100913.88;;;24.05;37.73
50349;BME280;36250;48.740;22.174;2023-05-03T09:45:34;100911.94;;;23.67;38.65
50349;BME280;36250;48.740;22.174;2023-05-03T09:48:00;100914.91;;;23.48;38.54
50349;BME280;36250;48.740;22.174;2023-05-03T09:50:26;100912.16;;;23.26;43.28
50349;BME280;36250;48.740;22.174;2023-05-03T09:52:51;100925.38;;;22.62;45.37
50349;BME280;36250;48.740;22.174;2023-05-03T09:55:17;100922.56;;;22.13;46.83
50349;BME280;36250;48.740;22.174;2023-05-03T09:57:43;100908.72;;;22.13;46.88
50349;BME280;36250;48.740;22.174;2023-05-03T10:00:10;100904.38;;;22.07;47.01
50349;BME280;36250;48.740;22.174;2023-05-03T10:02:37;100906.94;;;22.03;46.66
50349;BME280;36250;48.740;22.174;2023-05-03T10:05:03;100908.41;;;21.87;46.42
50349;BME280;36250;48.740;22.174;2023-05-03T10:07:29;100907.13;;;21.80;47.15
50349;BME280;36250;48.740;22.174;2023-05-03T10:09:55;100899.84;;;21.84;46.13
50349;BME280;36250;48.740;22.174;2023-05-03T10:12:22;100910.19;;;21.65;46.96
50349;BME280;36250;48.740;22.174;2023-05-03T10:14:48;100911.84;;;21.66;47.49
50349;BME280;36250;48.740;22.174;2023-05-03T10:17:19;100896.84;;;21.67;47.56
50349;BME280;36250;48.740;22.174;2023-05-03T10:19:51;100903.44;;;21.84;47.42
50349;BME280;36250;48.740;22.174;2023-05-03T10:22:19;100896.69;;;21.90;47.75
50349;BME280;36250;48.740;22.174;2023-05-03T10:28:10;100896.16;;;21.75;48.21
50349;BME280;36250;48.740;22.174;2023-05-03T10:35:40;100897.06;;;21.84;46.18
50349;BME280;36250;48.740;22.174;2023-05-03T10:38:12;100897.31;;;21.87;47.00
50349;BME280;36250;48.740;22.174;2023-05-03T10:40:41;100894.00;;;21.99;46.75
50349;BME280;36250;48.740;22.174;2023-05-03T10:43:07;100896.69;;;22.17;46.42
50349;BME280;36250;48.740;22.174;2023-05-03T10:45:52;100891.50;;;22.38;45.09
50349;BME280;36250;48.740;22.174;2023-05-03T10:48:17;100895.84;;;22.17;45.53
50349;BME280;36250;48.740;22.174;2023-05-03T10:50:45;100886.31;;;22.09;45.77
50349;BME280;36250;48.740;22.174;2023-05-03T10:53:32;100893.69;;;22.28;46.55
50349;BME280;36250;48.740;22.174;2023-05-03T10:56:03;100888.44;;;22.40;45.84
50349;BME280;36250;48.740;22.174;2023-05-03T10:58:31;100891.31;;;22.35;44.69
50349;BME280;36250;48.740;22.174;2023-05-03T11:00:59;100881.94;;;22.44;44.85
50349;BME280;36250;48.740;22.174;2023-05-03T11:05:56;100876.13;;;22.18;46.32
50349;BME280;36250;48.740;22.174;2023-05-03T11:08:21;100877.94;;;22.37;45.52
50349;BME280;36250;48.740;22.174;2023-05-03T11:10:48;100877.88;;;22.50;44.96
50349;BME280;36250;48.740;22.174;2023-05-03T11:13:14;100880.94;;;22.76;44.97
50349;BME280;36250;48.740;22.174;2023-05-03T11:15:39;100879.84;;;22.63;45.26
50349;BME280;36250;48.740;22.174;2023-05-03T11:18:05;100889.59;;;22.61;45.65
50349;BME280;36250;48.740;22.174;2023-05-03T11:20:31;100888.66;;;22.65;45.48
50349;BME280;36250;48.740;22.174;2023-05-03T11:22:56;100889.16;;;22.67;46.54
50349;BME280;36250;48.740;22.174;2023-05-03T11:25:22;100890.38;;;22.75;44.90
50349;BME280;36250;48.740;22.174;2023-05-03T11:27:47;100886.72;;;22.66;45.48
50349;BME280;36250;48.740;22.174;2023-05-03T11:30:12;100879.72;;;22.68;46.99
50349;BME280;36250;48.740;22.174;2023-05-03T11:32:38;100906.59;;;22.81;44.99
50349;BME280;36250;48.740;22.174;2023-05-03T11:35:06;100885.06;;;22.65;46.05
50349;BME280;36250;48.740;22.174;2023-05-03T11:37:32;100885.97;;;22.60;45.39
50349;BME280;36250;48.740;22.174;2023-05-03T11:39:58;100884.00;;;22.74;44.77
50349;BME280;36250;48.740;22.174;2023-05-03T11:42:23;100879.25;;;22.88;44.13
50349;BME280;36250;48.740;22.174;2023-05-03T11:44:51;100867.47;;;22.92;44.46
50349;BME280;36250;48.740;22.174;2023-05-03T11:47:16;100865.47;;;22.83;46.00
50349;BME280;36250;48.740;22.174;2023-05-03T11:49:49;100874.56;;;22.75;46.39
50349;BME280;36250;48.740;22.174;2023-05-03T11:52:18;100876.16;;;22.54;47.06
50349;BME280;36250;48.740;22.174;2023-05-03T11:54:44;100878.94;;;22.54;45.85
50349;BME280;36250;48.740;22.174;2023-05-03T11:57:11;100883.41;;;22.28;46.96
50349;BME280;36250;48.740;22.174;2023-05-03T11:59:36;100880.22;;;22.21;45.68
50349;BME280;36250;48.740;22.174;2023-05-03T12:02:02;100865.06;;;21.91;47.11
50349;BME280;36250;48.740;22.174;2023-05-03T12:04:29;100866.09;;;21.95;47.05
50349;BME280;36250;48.740;22.174;2023-05-03T12:06:54;100874.09;;;21.97;47.05
50349;BME280;36250;48.740;22.174;2023-05-03T12:09:20;100864.19;;;22.18;46.71
50349;BME280;36250;48.740;22.174;2023-05-03T12:11:45;100867.69;;;22.37;46.44
50349;BME280;36250;48.740;22.174;2023-05-03T12:14:13;100865.34;;;22.17;46.49
50349;BME280;36250;48.740;22.174;2023-05-03T12:16:48;100864.09;;;22.23;46.45
50349;BME280;36250;48.740;22.174;2023-05-03T12:21:48;100865.63;;;22.29;46.95
50349;BME280;36250;48.740;22.174;2023-05-03T12:24:14;100861.88;;;22.47;46.77
50349;BME280;36250;48.740;22.174;2023-05-03T12:26:44;100857.59;;;22.41;45.55
50349;BME280;36250;48.740;22.174;2023-05-03T12:29:10;100852.75;;;22.47;45.86
50349;BME280;36250;48.740;22.174;2023-05-03T12:31:35;100856.06;;;22.57;46.19
50349;BME280;36250;48.740;22.174;2023-05-03T12:34:01;100872.09;;;22.60;45.73
50349;BME280;36250;48.740;22.174;2023-05-03T12:36:26;100857.78;;;22.45;46.47
50349;BME280;36250;48.740;22.174;2023-05-03T12:38:52;100848.06;;;22.56;45.73
50349;BME280;36250;48.740;22.174;2023-05-03T12:41:17;100850.84;;;22.56;45.80
50349;BME280;36250;48.740;22.174;2023-05-03T12:43:42;100849.84;;;22.52;45.67
50349;BME280;36250;48.740;22.174;2023-05-03T12:46:07;100849.50;;;22.31;45.93
50349;BME280;36250;48.740;22.174;2023-05-03T12:48:33;100842.31;;;22.30;46.20
50349;BME280;36250;48.740;22.174;2023-05-03T12:50:58;100841.94;;;22.45;45.52
50349;BME280;36250;48.740;22.174;2023-05-03T12:53:24;100845.72;;;22.63;45.34
50349;BME280;36250;48.740;22.174;2023-05-03T12:55:50;100833.50;;;22.64;44.83
50349;BME280;36250;48.740;22.174;2023-05-03T12:58:15;100833.03;;;22.70;44.37
50349;BME280;36250;48.740;22.174;2023-05-03T13:00:41;100838.91;;;22.33;44.84